sensor_id;sensor_type;location;lat;lon;timestamp;P1;durP1;ratioP1;P2;durP2;ratioP2
10939;SDS011;5522;42.696;23.494;2023-06-19T00:00:55;8.70;;;7.97;;
10939;SDS011;5522;42.696;23.494;2023-06-19T00:03:22;8.88;;;8.15;;
10939;SDS011;5522;42.696;23.494;2023-06-19T00:05:49;15.50;;;8.57;;
10939;SDS011;5522;42.696;23.494;2023-06-19T00:08:15;11.60;;;7.65;;
10939;SDS011;5522;42.696;23.494;2023-06-19T00:10:44;18.90;;;9.13;;
10939;SDS011;5522;42.696;23.494;2023-06-19T00:13:10;10.02;;;8.45;;
10939;SDS011;5522;42.696;23.494;2023-06-19T00:15:37;11.13;;;8.43;;
10939;SDS011;5522;42.696;23.494;2023-06-19T00:18:04;10.88;;;7.63;;
10939;SDS011;5522;42.696;23.494;2023-06-19T00:20:32;11.55;;;7.78;;
10939;SDS011;5522;42.696;23.494;2023-06-19T00:23:00;8.60;;;7.63;;
10939;SDS011;5522;42.696;23.494;2023-06-19T00:25:27;7.85;;;7.25;;
10939;SDS011;5522;42.696;23.494;2023-06-19T00:27:55;8.48;;;7.65;;
10939;SDS011;5522;42.696;23.494;2023-06-19T00:30:22;8.80;;;7.85;;
10939;SDS011;5522;42.696;23.494;2023-06-19T00:32:49;8.80;;;8.02;;
10939;SDS011;5522;42.696;23.494;2023-06-19T00:35:18;8.30;;;7.70;;
10939;SDS011;5522;42.696;23.494;2023-06-19T00:37:46;9.18;;;7.80;;
10939;SDS011;5522;42.696;23.494;2023-06-19T00:40:15;10.60;;;8.43;;
10939;SDS011;5522;42.696;23.494;2023-06-19T00:42:47;8.80;;;7.70;;
10939;SDS011;5522;42.696;23.494;2023-06-19T00:45:15;9.00;;;7.95;;
10939;SDS011;5522;42.696;23.494;2023-06-19T00:47:42;9.70;;;8.25;;
10939;SDS011;5522;42.696;23.494;2023-06-19T00:50:10;11.13;;;8.18;;
10939;SDS011;5522;42.696;23.494;2023-06-19T00:52:37;11.20;;;8.68;;
10939;SDS011;5522;42.696;23.494;2023-06-19T00:55:04;9.20;;;8.50;;
10939;SDS011;5522;42.696;23.494;2023-06-19T00:57:34;10.88;;;9.77;;
10939;SDS011;5522;42.696;23.494;2023-06-19T01:07:52;11.07;;;10.07;;
10939;SDS011;5522;42.696;23.494;2023-06-19T01:10:26;11.63;;;10.52;;
10939;SDS011;5522;42.696;23.494;2023-06-19T01:12:56;16.75;;;10.93;;
10939;SDS011;5522;42.696;23.494;2023-06-19T01:15:26;11.82;;;10.57;;
10939;SDS011;5522;42.696;23.494;2023-06-19T01:17:54;11.55;;;10.35;;
10939;SDS011;5522;42.696;23.494;2023-06-19T01:20:22;11.85;;;10.27;;
10939;SDS011;5522;42.696;23.494;2023-06-19T01:22:53;10.57;;;9.45;;
10939;SDS011;5522;42.696;23.494;2023-06-19T01:25:22;11.77;;;9.13;;
10939;SDS011;5522;42.696;23.494;2023-06-19T01:27:49;10.30;;;9.15;;
10939;SDS011;5522;42.696;23.494;2023-06-19T01:30:16;11.32;;;9.27;;
10939;SDS011;5522;42.696;23.494;2023-06-19T01:32:45;11.40;;;10.32;;
10939;SDS011;5522;42.696;23.494;2023-06-19T01:35:19;18.88;;;10.05;;
10939;SDS011;5522;42.696;23.494;2023-06-19T01:37:49;11.07;;;9.05;;
10939;SDS011;5522;42.696;23.494;2023-06-19T01:40:20;11.05;;;9.95;;
10939;SDS011;5522;42.696;23.494;2023-06-19T01:42:51;10.18;;;9.27;;
10939;SDS011;5522;42.696;23.494;2023-06-19T01:45:19;20.15;;;9.02;;
10939;SDS011;5522;42.696;23.494;2023-06-19T01:47:46;14.02;;;8.98;;
10939;SDS011;5522;42.696;23.494;2023-06-19T01:50:13;10.25;;;9.25;;
10939;SDS011;5522;42.696;23.494;2023-06-19T01:52:41;11.90;;;9.38;;
10939;SDS011;5522;42.696;23.494;2023-06-19T01:55:09;16.13;;;10.00;;
10939;SDS011;5522;42.696;23.494;2023-06-19T01:57:36;12.82;;;9.88;;
10939;SDS011;5522;42.696;23.494;2023-06-19T02:00:03;21.63;;;9.57;;
10939;SDS011;5522;42.696;23.494;2023-06-19T02:02:32;13.82;;;9.40;;
10939;SDS011;5522;42.696;23.494;2023-06-19T02:04:59;11.57;;;9.25;;
10939;SDS011;5522;42.696;23.494;2023-06-19T02:07:26;17.25;;;9.88;;
10939;SDS011;5522;42.696;23.494;2023-06-19T02:09:53;18.42;;;10.80;;
10939;SDS011;5522;42.696;23.494;2023-06-19T02:12:21;12.20;;;9.57;;
10939;SDS011;5522;42.696;23.494;2023-06-19T02:14:48;12.80;;;9.95;;
10939;SDS011;5522;42.696;23.494;2023-06-19T02:17:15;14.60;;;10.02;;
10939;SDS011;5522;42.696;23.494;2023-06-19T02:19:42;12.85;;;9.10;;
10939;SDS011;5522;42.696;23.494;2023-06-19T02:22:09;18.95;;;9.40;;
10939;SDS011;5522;42.696;23.494;2023-06-19T02:24:35;21.77;;;9.90;;
10939;SDS011;5522;42.696;23.494;2023-06-19T02:27:04;11.68;;;10.18;;
10939;SDS011;5522;42.696;23.494;2023-06-19T02:29:33;13.68;;;10.70;;
10939;SDS011;5522;42.696;23.494;2023-06-19T02:32:00;11.73;;;10.07;;
10939;SDS011;5522;42.696;23.494;2023-06-19T02:34:27;12.35;;;10.73;;
10939;SDS011;5522;42.696;23.494;2023-06-19T02:36:54;16.98;;;11.25;;
10939;SDS011;5522;42.696;23.494;2023-06-19T02:39:21;12.32;;;10.73;;
10939;SDS011;5522;42.696;23.494;2023-06-19T02:41:48;17.65;;;11.13;;
10939;SDS011;5522;42.696;23.494;2023-06-19T02:44:15;22.52;;;10.15;;
10939;SDS011;5522;42.696;23.494;2023-06-19T02:46:43;28.30;;;10.48;;
10939;SDS011;5522;42.696;23.494;2023-06-19T02:49:10;18.77;;;10.18;;
10939;SDS011;5522;42.696;23.494;2023-06-19T02:51:36;16.02;;;11.23;;
10939;SDS011;5522;42.696;23.494;2023-06-19T02:54:03;14.57;;;9.30;;
10939;SDS011;5522;42.696;23.494;2023-06-19T02:56:31;11.73;;;8.98;;
10939;SDS011;5522;42.696;23.494;2023-06-19T02:58:58;10.40;;;9.10;;
10939;SDS011;5522;42.696;23.494;2023-06-19T03:01:25;11.13;;;9.20;;
10939;SDS011;5522;42.696;23.494;2023-06-19T03:03:53;14.02;;;10.20;;
10939;SDS011;5522;42.696;23.494;2023-06-19T03:06:20;10.82;;;9.32;;
10939;SDS011;5522;42.696;23.494;2023-06-19T03:08:46;12.15;;;9.75;;
10939;SDS011;5522;42.696;23.494;2023-06-19T03:11:13;12.68;;;9.40;;
10939;SDS011;5522;42.696;23.494;2023-06-19T03:13:44;11.48;;;9.95;;
10939;SDS011;5522;42.696;23.494;2023-06-19T03:16:12;11.80;;;9.85;;
10939;SDS011;5522;42.696;23.494;2023-06-19T03:18:40;14.10;;;10.18;;
10939;SDS011;5522;42.696;23.494;2023-06-19T03:21:11;14.80;;;10.73;;
10939;SDS011;5522;42.696;23.494;2023-06-19T03:23:37;17.08;;;10.48;;
10939;SDS011;5522;42.696;23.494;2023-06-19T03:26:06;16.33;;;9.30;;
10939;SDS011;5522;42.696;23.494;2023-06-19T03:28:33;9.73;;;8.75;;
10939;SDS011;5522;42.696;23.494;2023-06-19T03:30:59;9.23;;;7.80;;
10939;SDS011;5522;42.696;23.494;2023-06-19T03:33:26;10.80;;;6.93;;
10939;SDS011;5522;42.696;23.494;2023-06-19T03:35:53;5.88;;;5.57;;
10939;SDS011;5522;42.696;23.494;2023-06-19T03:38:22;4.53;;;4.07;;
10939;SDS011;5522;42.696;23.494;2023-06-19T03:40:49;3.92;;;3.47;;
10939;SDS011;5522;42.696;23.494;2023-06-19T03:43:16;6.30;;;2.58;;
10939;SDS011;5522;42.696;23.494;2023-06-19T03:45:43;4.40;;;2.30;;
10939;SDS011;5522;42.696;23.494;2023-06-19T03:48:09;1.70;;;1.60;;
10939;SDS011;5522;42.696;23.494;2023-06-19T03:50:36;1.60;;;1.50;;
10939;SDS011;5522;42.696;23.494;2023-06-19T03:53:03;5.35;;;1.95;;
10939;SDS011;5522;42.696;23.494;2023-06-19T03:55:32;1.90;;;1.77;;
10939;SDS011;5522;42.696;23.494;2023-06-19T03:57:59;4.05;;;1.67;;
10939;SDS011;5522;42.696;23.494;2023-06-19T04:00:26;2.60;;;1.25;;
10939;SDS011;5522;42.696;23.494;2023-06-19T04:02:52;5.93;;;2.08;;
10939;SDS011;5522;42.696;23.494;2023-06-19T04:05:19;1.60;;;1.60;;
10939;SDS011;5522;42.696;23.494;2023-06-19T04:07:46;2.65;;;1.50;;
10939;SDS011;5522;42.696;23.494;2023-06-19T04:10:13;4.90;;;2.20;;
10939;SDS011;5522;42.696;23.494;2023-06-19T04:12:42;2.13;;;1.50;;
10939;SDS011;5522;42.696;23.494;2023-06-19T04:15:10;1.45;;;1.35;;
10939;SDS011;5522;42.696;23.494;2023-06-19T04:17:37;6.47;;;2.42;;
10939;SDS011;5522;42.696;23.494;2023-06-19T04:20:04;2.70;;;1.60;;
10939;SDS011;5522;42.696;23.494;2023-06-19T04:22:36;5.97;;;1.55;;
10939;SDS011;5522;42.696;23.494;2023-06-19T04:25:03;4.78;;;1.27;;
10939;SDS011;5522;42.696;23.494;2023-06-19T04:27:30;1.75;;;1.65;;
10939;SDS011;5522;42.696;23.494;2023-06-19T04:30:01;3.20;;;1.20;;
10939;SDS011;5522;42.696;23.494;2023-06-19T04:32:29;1.60;;;0.95;;
10939;SDS011;5522;42.696;23.494;2023-06-19T04:34:57;1.10;;;0.82;;
10939;SDS011;5522;42.696;23.494;2023-06-19T04:37:24;4.13;;;0.77;;
10939;SDS011;5522;42.696;23.494;2023-06-19T04:39:51;4.90;;;1.00;;
10939;SDS011;5522;42.696;23.494;2023-06-19T04:42:18;1.27;;;0.98;;
10939;SDS011;5522;42.696;23.494;2023-06-19T04:44:45;2.15;;;1.30;;
10939;SDS011;5522;42.696;23.494;2023-06-19T04:47:16;2.33;;;1.02;;
10939;SDS011;5522;42.696;23.494;2023-06-19T04:49:44;1.42;;;1.25;;
10939;SDS011;5522;42.696;23.494;2023-06-19T04:52:10;1.02;;;1.00;;
10939;SDS011;5522;42.696;23.494;2023-06-19T04:54:37;1.98;;;1.00;;
10939;SDS011;5522;42.696;23.494;2023-06-19T04:57:04;1.88;;;1.25;;
10939;SDS011;5522;42.696;23.494;2023-06-19T04:59:32;1.00;;;0.80;;
10939;SDS011;5522;42.696;23.494;2023-06-19T05:01:59;1.27;;;1.00;;
10939;SDS011;5522;42.696;23.494;2023-06-19T05:04:27;0.95;;;0.95;;
10939;SDS011;5522;42.696;23.494;2023-06-19T05:06:55;1.98;;;1.10;;
10939;SDS011;5522;42.696;23.494;2023-06-19T05:09:22;3.83;;;0.80;;
10939;SDS011;5522;42.696;23.494;2023-06-19T05:11:49;4.65;;;0.88;;
10939;SDS011;5522;42.696;23.494;2023-06-19T05:14:16;3.28;;;0.90;;
10939;SDS011;5522;42.696;23.494;2023-06-19T05:16:42;3.15;;;1.30;;
10939;SDS011;5522;42.696;23.494;2023-06-19T05:19:09;3.28;;;0.93;;
10939;SDS011;5522;42.696;23.494;2023-06-19T05:21:38;2.28;;;0.68;;
10939;SDS011;5522;42.696;23.494;2023-06-19T05:24:04;0.70;;;0.60;;
10939;SDS011;5522;42.696;23.494;2023-06-19T05:26:31;1.50;;;1.30;;
10939;SDS011;5522;42.696;23.494;2023-06-19T05:28:58;4.20;;;0.82;;
10939;SDS011;5522;42.696;23.494;2023-06-19T05:31:25;1.55;;;0.88;;
10939;SDS011;5522;42.696;23.494;2023-06-19T05:33:52;6.13;;;0.93;;
10939;SDS011;5522;42.696;23.494;2023-06-19T05:36:19;2.53;;;1.00;;
10939;SDS011;5522;42.696;23.494;2023-06-19T05:38:47;6.63;;;1.00;;
10939;SDS011;5522;42.696;23.494;2023-06-19T05:41:15;0.75;;;0.75;;
10939;SDS011;5522;42.696;23.494;2023-06-19T05:43:42;5.38;;;0.80;;
10939;SDS011;5522;42.696;23.494;2023-06-19T05:46:09;3.60;;;1.02;;
10939;SDS011;5522;42.696;23.494;2023-06-19T05:48:37;9.80;;;1.10;;
10939;SDS011;5522;42.696;23.494;2023-06-19T05:51:04;0.90;;;0.90;;
10939;SDS011;5522;42.696;23.494;2023-06-19T05:53:31;3.80;;;0.88;;
10939;SDS011;5522;42.696;23.494;2023-06-19T05:55:59;2.35;;;1.00;;
10939;SDS011;5522;42.696;23.494;2023-06-19T05:58:26;1.02;;;0.95;;
10939;SDS011;5522;42.696;23.494;2023-06-19T06:00:53;2.55;;;1.40;;
10939;SDS011;5522;42.696;23.494;2023-06-19T06:03:23;4.70;;;1.10;;
10939;SDS011;5522;42.696;23.494;2023-06-19T06:05:51;2.70;;;1.23;;
10939;SDS011;5522;42.696;23.494;2023-06-19T06:08:18;4.15;;;1.40;;
10939;SDS011;5522;42.696;23.494;2023-06-19T06:10:45;2.90;;;1.27;;
10939;SDS011;5522;42.696;23.494;2023-06-19T06:13:13;1.23;;;1.05;;
10939;SDS011;5522;42.696;23.494;2023-06-19T06:15:40;3.33;;;1.10;;
10939;SDS011;5522;42.696;23.494;2023-06-19T06:18:07;2.40;;;1.30;;
10939;SDS011;5522;42.696;23.494;2023-06-19T06:20:34;1.88;;;0.90;;
10939;SDS011;5522;42.696;23.494;2023-06-19T06:23:02;5.47;;;0.98;;
10939;SDS011;5522;42.696;23.494;2023-06-19T06:25:29;4.03;;;1.02;;
10939;SDS011;5522;42.696;23.494;2023-06-19T06:27:58;2.05;;;0.90;;
10939;SDS011;5522;42.696;23.494;2023-06-19T06:30:26;1.70;;;1.00;;
10939;SDS011;5522;42.696;23.494;2023-06-19T06:32:53;1.95;;;1.10;;
10939;SDS011;5522;42.696;23.494;2023-06-19T06:35:23;6.35;;;0.82;;
10939;SDS011;5522;42.696;23.494;2023-06-19T06:37:52;1.10;;;0.80;;
10939;SDS011;5522;42.696;23.494;2023-06-19T06:40:23;2.47;;;0.80;;
10939;SDS011;5522;42.696;23.494;2023-06-19T06:42:52;3.80;;;0.98;;
10939;SDS011;5522;42.696;23.494;2023-06-19T06:45:21;1.85;;;0.90;;
10939;SDS011;5522;42.696;23.494;2023-06-19T06:47:52;4.70;;;0.80;;
10939;SDS011;5522;42.696;23.494;2023-06-19T06:50:19;1.13;;;1.13;;
10939;SDS011;5522;42.696;23.494;2023-06-19T06:52:46;2.67;;;1.27;;
10939;SDS011;5522;42.696;23.494;2023-06-19T06:55:12;5.72;;;5.22;;
10939;SDS011;5522;42.696;23.494;2023-06-19T06:57:39;1.75;;;0.80;;
10939;SDS011;5522;42.696;23.494;2023-06-19T07:00:07;1.70;;;0.60;;
10939;SDS011;5522;42.696;23.494;2023-06-19T07:02:43;3.95;;;0.60;;
10939;SDS011;5522;42.696;23.494;2023-06-19T07:05:14;0.50;;;0.50;;
10939;SDS011;5522;42.696;23.494;2023-06-19T07:07:41;2.58;;;0.60;;
10939;SDS011;5522;42.696;23.494;2023-06-19T07:10:08;1.08;;;0.70;;
10939;SDS011;5522;42.696;23.494;2023-06-19T07:12:47;5.78;;;0.60;;
10939;SDS011;5522;42.696;23.494;2023-06-19T07:15:18;2.85;;;0.70;;
10939;SDS011;5522;42.696;23.494;2023-06-19T07:17:48;1.20;;;0.50;;
10939;SDS011;5522;42.696;23.494;2023-06-19T07:20:17;3.80;;;0.63;;
10939;SDS011;5522;42.696;23.494;2023-06-19T07:22:44;2.85;;;0.50;;
10939;SDS011;5522;42.696;23.494;2023-06-19T07:25:11;0.50;;;0.50;;
10939;SDS011;5522;42.696;23.494;2023-06-19T07:27:40;2.80;;;0.50;;
10939;SDS011;5522;42.696;23.494;2023-06-19T07:30:07;2.53;;;0.50;;
10939;SDS011;5522;42.696;23.494;2023-06-19T07:32:36;1.58;;;0.70;;
10939;SDS011;5522;42.696;23.494;2023-06-19T07:35:03;8.30;;;0.60;;
10939;SDS011;5522;42.696;23.494;2023-06-19T07:37:31;0.60;;;0.60;;
10939;SDS011;5522;42.696;23.494;2023-06-19T07:39:59;1.80;;;0.60;;
10939;SDS011;5522;42.696;23.494;2023-06-19T07:42:28;0.93;;;0.80;;
10939;SDS011;5522;42.696;23.494;2023-06-19T07:44:55;1.55;;;0.52;;
10939;SDS011;5522;42.696;23.494;2023-06-19T07:47:22;1.98;;;0.55;;
10939;SDS011;5522;42.696;23.494;2023-06-19T07:49:49;1.13;;;0.60;;
10939;SDS011;5522;42.696;23.494;2023-06-19T07:52:15;1.65;;;0.50;;
10939;SDS011;5522;42.696;23.494;2023-06-19T07:54:52;2.05;;;0.80;;
10939;SDS011;5522;42.696;23.494;2023-06-19T07:57:25;2.05;;;0.60;;
10939;SDS011;5522;42.696;23.494;2023-06-19T07:59:53;0.85;;;0.70;;
10939;SDS011;5522;42.696;23.494;2023-06-19T08:02:20;1.58;;;0.80;;
10939;SDS011;5522;42.696;23.494;2023-06-19T08:04:47;3.67;;;0.93;;
10939;SDS011;5522;42.696;23.494;2023-06-19T08:07:22;1.65;;;1.13;;
10939;SDS011;5522;42.696;23.494;2023-06-19T08:09:49;1.70;;;0.50;;
10939;SDS011;5522;42.696;23.494;2023-06-19T08:12:17;0.55;;;0.50;;
10939;SDS011;5522;42.696;23.494;2023-06-19T08:14:50;1.02;;;0.52;;
10939;SDS011;5522;42.696;23.494;2023-06-19T08:17:17;6.03;;;0.52;;
10939;SDS011;5522;42.696;23.494;2023-06-19T08:19:46;0.70;;;0.70;;
10939;SDS011;5522;42.696;23.494;2023-06-19T08:22:14;2.92;;;0.60;;
10939;SDS011;5522;42.696;23.494;2023-06-19T08:24:42;2.03;;;0.60;;
10939;SDS011;5522;42.696;23.494;2023-06-19T08:27:09;4.65;;;0.50;;
10939;SDS011;5522;42.696;23.494;2023-06-19T08:29:37;1.55;;;0.50;;
10939;SDS011;5522;42.696;23.494;2023-06-19T08:32:04;0.50;;;0.50;;
10939;SDS011;5522;42.696;23.494;2023-06-19T08:34:33;1.98;;;0.50;;
10939;SDS011;5522;42.696;23.494;2023-06-19T08:37:08;0.50;;;0.50;;
10939;SDS011;5522;42.696;23.494;2023-06-19T08:39:37;0.50;;;0.50;;
10939;SDS011;5522;42.696;23.494;2023-06-19T08:42:05;0.50;;;0.50;;
10939;SDS011;5522;42.696;23.494;2023-06-19T08:44:33;0.50;;;0.50;;
10939;SDS011;5522;42.696;23.494;2023-06-19T08:47:03;2.15;;;0.50;;
10939;SDS011;5522;42.696;23.494;2023-06-19T08:49:35;1.45;;;0.85;;
10939;SDS011;5522;42.696;23.494;2023-06-19T08:52:02;1.05;;;0.70;;
10939;SDS011;5522;42.696;23.494;2023-06-19T08:54:30;1.95;;;0.60;;
10939;SDS011;5522;42.696;23.494;2023-06-19T08:56:59;4.22;;;0.50;;
10939;SDS011;5522;42.696;23.494;2023-06-19T08:59:27;0.93;;;0.60;;
10939;SDS011;5522;42.696;23.494;2023-06-19T09:01:54;1.48;;;0.50;;
10939;SDS011;5522;42.696;23.494;2023-06-19T09:04:23;1.90;;;0.50;;
10939;SDS011;5522;42.696;23.494;2023-06-19T09:06:52;5.28;;;0.50;;
10939;SDS011;5522;42.696;23.494;2023-06-19T09:09:21;2.40;;;0.50;;
10939;SDS011;5522;42.696;23.494;2023-06-19T09:11:56;5.35;;;0.50;;
10939;SDS011;5522;42.696;23.494;2023-06-19T09:14:30;3.80;;;0.52;;
10939;SDS011;5522;42.696;23.494;2023-06-19T09:17:00;0.47;;;0.47;;
10939;SDS011;5522;42.696;23.494;2023-06-19T09:19:29;2.97;;;0.40;;
10939;SDS011;5522;42.696;23.494;2023-06-19T09:22:01;0.52;;;0.52;;
10939;SDS011;5522;42.696;23.494;2023-06-19T09:24:37;0.40;;;0.40;;
10939;SDS011;5522;42.696;23.494;2023-06-19T09:27:06;1.40;;;0.40;;
10939;SDS011;5522;42.696;23.494;2023-06-19T09:29:44;0.73;;;0.40;;
10939;SDS011;5522;42.696;23.494;2023-06-19T09:32:15;3.42;;;0.50;;
10939;SDS011;5522;42.696;23.494;2023-06-19T09:34:44;2.00;;;0.57;;
10939;SDS011;5522;42.696;23.494;2023-06-19T09:37:12;0.47;;;0.40;;
10939;SDS011;5522;42.696;23.494;2023-06-19T09:39:39;1.10;;;0.40;;
10939;SDS011;5522;42.696;23.494;2023-06-19T09:42:06;1.35;;;0.43;;
10939;SDS011;5522;42.696;23.494;2023-06-19T09:44:39;2.00;;;0.52;;
10939;SDS011;5522;42.696;23.494;2023-06-19T09:47:11;2.38;;;0.50;;
10939;SDS011;5522;42.696;23.494;2023-06-19T09:49:47;1.88;;;0.50;;
10939;SDS011;5522;42.696;23.494;2023-06-19T09:52:20;0.50;;;0.50;;
10939;SDS011;5522;42.696;23.494;2023-06-19T09:54:49;3.30;;;0.40;;
10939;SDS011;5522;42.696;23.494;2023-06-19T09:57:16;0.60;;;0.50;;
10939;SDS011;5522;42.696;23.494;2023-06-19T09:59:45;2.45;;;0.40;;
10939;SDS011;5522;42.696;23.494;2023-06-19T10:02:14;0.90;;;0.47;;
10939;SDS011;5522;42.696;23.494;2023-06-19T10:04:43;0.50;;;0.50;;
10939;SDS011;5522;42.696;23.494;2023-06-19T10:07:16;1.05;;;0.50;;
10939;SDS011;5522;42.696;23.494;2023-06-19T10:09:59;0.50;;;0.50;;
10939;SDS011;5522;42.696;23.494;2023-06-19T10:12:33;0.50;;;0.50;;
10939;SDS011;5522;42.696;23.494;2023-06-19T10:15:12;1.55;;;0.50;;
10939;SDS011;5522;42.696;23.494;2023-06-19T10:17:43;1.25;;;0.60;;
10939;SDS011;5522;42.696;23.494;2023-06-19T10:20:21;0.75;;;0.50;;
10939;SDS011;5522;42.696;23.494;2023-06-19T10:22:52;1.17;;;0.55;;
10939;SDS011;5522;42.696;23.494;2023-06-19T10:25:22;1.30;;;0.50;;
10939;SDS011;5522;42.696;23.494;2023-06-19T10:27:50;1.67;;;0.68;;
10939;SDS011;5522;42.696;23.494;2023-06-19T10:30:18;1.30;;;0.75;;
10939;SDS011;5522;42.696;23.494;2023-06-19T10:32:48;0.73;;;0.60;;
10939;SDS011;5522;42.696;23.494;2023-06-19T10:35:15;0.88;;;0.57;;
10939;SDS011;5522;42.696;23.494;2023-06-19T10:37:44;5.53;;;0.73;;
10939;SDS011;5522;42.696;23.494;2023-06-19T10:40:18;1.95;;;0.50;;
10939;SDS011;5522;42.696;23.494;2023-06-19T10:42:45;1.42;;;0.50;;
10939;SDS011;5522;42.696;23.494;2023-06-19T10:45:14;2.20;;;0.65;;
10939;SDS011;5522;42.696;23.494;2023-06-19T10:47:53;1.08;;;0.50;;
10939;SDS011;5522;42.696;23.494;2023-06-19T10:50:21;2.50;;;0.50;;
10939;SDS011;5522;42.696;23.494;2023-06-19T10:52:48;2.38;;;0.50;;
10939;SDS011;5522;42.696;23.494;2023-06-19T10:55:21;2.78;;;0.55;;
10939;SDS011;5522;42.696;23.494;2023-06-19T10:57:48;1.30;;;0.60;;
10939;SDS011;5522;42.696;23.494;2023-06-19T11:00:22;2.50;;;0.70;;
10939;SDS011;5522;42.696;23.494;2023-06-19T11:02:50;2.30;;;0.70;;
10939;SDS011;5522;42.696;23.494;2023-06-19T11:05:19;1.63;;;0.60;;
10939;SDS011;5522;42.696;23.494;2023-06-19T11:07:50;0.70;;;0.70;;
10939;SDS011;5522;42.696;23.494;2023-06-19T11:10:23;2.92;;;0.63;;
10939;SDS011;5522;42.696;23.494;2023-06-19T11:12:54;5.68;;;0.80;;
10939;SDS011;5522;42.696;23.494;2023-06-19T11:15:28;0.50;;;0.50;;
10939;SDS011;5522;42.696;23.494;2023-06-19T11:17:56;2.92;;;0.57;;
10939;SDS011;5522;42.696;23.494;2023-06-19T11:20:23;3.40;;;0.70;;
10939;SDS011;5522;42.696;23.494;2023-06-19T11:22:54;1.73;;;0.60;;
10939;SDS011;5522;42.696;23.494;2023-06-19T11:25:24;1.40;;;0.50;;
10939;SDS011;5522;42.696;23.494;2023-06-19T11:28:01;2.75;;;1.17;;
10939;SDS011;5522;42.696;23.494;2023-06-19T11:30:30;1.60;;;0.60;;
10939;SDS011;5522;42.696;23.494;2023-06-19T11:32:58;1.75;;;0.70;;
10939;SDS011;5522;42.696;23.494;2023-06-19T11:35:32;1.75;;;0.70;;
10939;SDS011;5522;42.696;23.494;2023-06-19T11:38:01;2.03;;;0.60;;
10939;SDS011;5522;42.696;23.494;2023-06-19T11:40:29;0.52;;;0.52;;
10939;SDS011;5522;42.696;23.494;2023-06-19T11:43:05;1.58;;;0.60;;
10939;SDS011;5522;42.696;23.494;2023-06-19T11:45:33;0.77;;;0.60;;
10939;SDS011;5522;42.696;23.494;2023-06-19T11:48:12;1.38;;;0.80;;
10939;SDS011;5522;42.696;23.494;2023-06-19T11:50:39;1.02;;;0.60;;
10939;SDS011;5522;42.696;23.494;2023-06-19T11:53:06;1.30;;;0.60;;
10939;SDS011;5522;42.696;23.494;2023-06-19T11:55:34;3.05;;;0.60;;
10939;SDS011;5522;42.696;23.494;2023-06-19T11:58:01;1.58;;;0.60;;
10939;SDS011;5522;42.696;23.494;2023-06-19T12:00:28;1.95;;;0.60;;
10939;SDS011;5522;42.696;23.494;2023-06-19T12:02:55;1.67;;;0.60;;
10939;SDS011;5522;42.696;23.494;2023-06-19T12:05:23;0.50;;;0.50;;
10939;SDS011;5522;42.696;23.494;2023-06-19T12:07:50;1.95;;;0.60;;
10939;SDS011;5522;42.696;23.494;2023-06-19T12:10:17;3.70;;;0.52;;
10939;SDS011;5522;42.696;23.494;2023-06-19T12:12:46;2.00;;;0.60;;
10939;SDS011;5522;42.696;23.494;2023-06-19T12:15:12;1.02;;;0.70;;
10939;SDS011;5522;42.696;23.494;2023-06-19T12:17:39;1.77;;;0.75;;
10939;SDS011;5522;42.696;23.494;2023-06-19T12:20:06;0.75;;;0.50;;
10939;SDS011;5522;42.696;23.494;2023-06-19T12:22:34;4.47;;;0.73;;
10939;SDS011;5522;42.696;23.494;2023-06-19T12:25:01;0.75;;;0.60;;
10939;SDS011;5522;42.696;23.494;2023-06-19T12:27:28;4.57;;;0.70;;
10939;SDS011;5522;42.696;23.494;2023-06-19T12:29:56;4.22;;;0.60;;
10939;SDS011;5522;42.696;23.494;2023-06-19T12:32:23;1.77;;;0.50;;
10939;SDS011;5522;42.696;23.494;2023-06-19T12:34:50;1.27;;;0.70;;
10939;SDS011;5522;42.696;23.494;2023-06-19T12:37:19;1.75;;;0.50;;
10939;SDS011;5522;42.696;23.494;2023-06-19T12:39:46;0.50;;;0.50;;
10939;SDS011;5522;42.696;23.494;2023-06-19T12:42:13;0.63;;;0.50;;
10939;SDS011;5522;42.696;23.494;2023-06-19T12:44:40;1.05;;;0.50;;
10939;SDS011;5522;42.696;23.494;2023-06-19T12:47:10;3.35;;;0.50;;
10939;SDS011;5522;42.696;23.494;2023-06-19T12:49:37;0.65;;;0.65;;
10939;SDS011;5522;42.696;23.494;2023-06-19T12:52:05;0.60;;;0.60;;
10939;SDS011;5522;42.696;23.494;2023-06-19T12:54:32;2.28;;;0.80;;
10939;SDS011;5522;42.696;23.494;2023-06-19T12:56:59;1.00;;;0.73;;
10939;SDS011;5522;42.696;23.494;2023-06-19T12:59:26;1.75;;;0.65;;
10939;SDS011;5522;42.696;23.494;2023-06-19T13:01:54;0.70;;;0.70;;
10939;SDS011;5522;42.696;23.494;2023-06-19T13:04:22;1.55;;;0.65;;
10939;SDS011;5522;42.696;23.494;2023-06-19T13:06:49;1.85;;;0.93;;
10939;SDS011;5522;42.696;23.494;2023-06-19T13:09:16;1.73;;;0.70;;
10939;SDS011;5522;42.696;23.494;2023-06-19T13:11:43;0.82;;;0.70;;
10939;SDS011;5522;42.696;23.494;2023-06-19T13:14:10;2.40;;;0.77;;
10939;SDS011;5522;42.696;23.494;2023-06-19T13:16:37;4.15;;;0.60;;
10939;SDS011;5522;42.696;23.494;2023-06-19T13:19:03;0.75;;;0.75;;
10939;SDS011;5522;42.696;23.494;2023-06-19T13:21:32;3.10;;;0.65;;
10939;SDS011;5522;42.696;23.494;2023-06-19T13:24:00;2.83;;;0.90;;
10939;SDS011;5522;42.696;23.494;2023-06-19T13:26:27;1.55;;;0.60;;
10939;SDS011;5522;42.696;23.494;2023-06-19T13:28:54;2.92;;;0.80;;
10939;SDS011;5522;42.696;23.494;2023-06-19T13:31:23;5.85;;;0.82;;
10939;SDS011;5522;42.696;23.494;2023-06-19T13:33:50;2.85;;;0.88;;
10939;SDS011;5522;42.696;23.494;2023-06-19T13:36:17;0.85;;;0.70;;
10939;SDS011;5522;42.696;23.494;2023-06-19T13:38:46;5.10;;;0.60;;
10939;SDS011;5522;42.696;23.494;2023-06-19T13:41:13;0.70;;;0.70;;
10939;SDS011;5522;42.696;23.494;2023-06-19T13:43:40;0.90;;;0.70;;
10939;SDS011;5522;42.696;23.494;2023-06-19T13:46:07;1.75;;;0.70;;
10939;SDS011;5522;42.696;23.494;2023-06-19T13:48:34;0.77;;;0.60;;
10939;SDS011;5522;42.696;23.494;2023-06-19T13:51:01;0.95;;;0.77;;
10939;SDS011;5522;42.696;23.494;2023-06-19T13:53:28;0.93;;;0.60;;
10939;SDS011;5522;42.696;23.494;2023-06-19T13:55:56;2.45;;;0.57;;
10939;SDS011;5522;42.696;23.494;2023-06-19T13:58:23;0.68;;;0.65;;
10939;SDS011;5522;42.696;23.494;2023-06-19T14:00:50;0.60;;;0.60;;
10939;SDS011;5522;42.696;23.494;2023-06-19T14:03:17;1.23;;;0.50;;
10939;SDS011;5522;42.696;23.494;2023-06-19T14:05:44;2.10;;;0.60;;
10939;SDS011;5522;42.696;23.494;2023-06-19T14:08:11;1.25;;;0.60;;
10939;SDS011;5522;42.696;23.494;2023-06-19T14:10:38;0.52;;;0.52;;
10939;SDS011;5522;42.696;23.494;2023-06-19T14:13:06;1.70;;;0.60;;
10939;SDS011;5522;42.696;23.494;2023-06-19T14:15:33;3.53;;;1.13;;
10939;SDS011;5522;42.696;23.494;2023-06-19T14:18:00;0.65;;;0.60;;
10939;SDS011;5522;42.696;23.494;2023-06-19T14:20:27;0.88;;;0.60;;
10939;SDS011;5522;42.696;23.494;2023-06-19T14:22:54;4.10;;;0.50;;
10939;SDS011;5522;42.696;23.494;2023-06-19T14:25:20;0.60;;;0.60;;
10939;SDS011;5522;42.696;23.494;2023-06-19T14:27:47;0.60;;;0.60;;
10939;SDS011;5522;42.696;23.494;2023-06-19T14:30:15;0.95;;;0.63;;
10939;SDS011;5522;42.696;23.494;2023-06-19T14:32:42;4.70;;;0.60;;
10939;SDS011;5522;42.696;23.494;2023-06-19T14:35:09;0.70;;;0.70;;
10939;SDS011;5522;42.696;23.494;2023-06-19T14:37:36;0.85;;;0.60;;
10939;SDS011;5522;42.696;23.494;2023-06-19T14:40:03;0.73;;;0.68;;
10939;SDS011;5522;42.696;23.494;2023-06-19T14:42:31;0.50;;;0.50;;
10939;SDS011;5522;42.696;23.494;2023-06-19T14:44:58;1.20;;;0.70;;
10939;SDS011;5522;42.696;23.494;2023-06-19T14:47:26;1.55;;;0.50;;
10939;SDS011;5522;42.696;23.494;2023-06-19T14:49:53;0.82;;;0.50;;
10939;SDS011;5522;42.696;23.494;2023-06-19T14:52:20;2.38;;;0.60;;
10939;SDS011;5522;42.696;23.494;2023-06-19T14:54:47;1.77;;;0.80;;
10939;SDS011;5522;42.696;23.494;2023-06-19T14:57:14;1.40;;;0.75;;